Hovedside
METAR-TAF:

METAR-TAF

Lufthavner :

Shawbury, England

breddegrad: 52-48N, lengdegrad: 002-40W, høyde over havet: 76 m

Gjeldene værobservasjon

Denne rapporten ble laget for 29 minutter siden, klokken 13:20 UTC
Vind 11 kt fra Sør-sørvest
Temperatur 24°C
Luftfuktighet 50%
Trykk 1018 hPa
Sikt 10 km eller mer
Spredte skyer i en høyde av 4500 ft
Spredte skyer i en høyde av 12000 ft

METAR: EGOS 181320Z 20011KT 9999 SCT045 SCT120 24/13 Q1018 NOSIG RMK BLU BLU

Tid: 14:49 (13:49 UTC)

Varsel

Denne rapporten ble laget for 3 timer og 18 minutter siden, klokken 10:31 UTC
Varsel gyldig fra 18. klokken 12 UTC til 18. klokken 21 UTC
Vind 12 kt fra Sør
Sikt 10 km eller mer
Få skyer i en høyde av 4000 ft

TAF: EGOS 181031Z 1812/1821 19012KT 9999 FEW040

Værobservasjoner og værvarsel for over 4000 flyplasser (METAR- og TAF-rapporter).

Tilgjengelige stasjoner er representert av de røde og gule prikkene på kartet.

Hold musepekeren over prikken for å se navnet på stasjonen.

Klikk så for å se værobservasjoner og -varsler.

For å forandre kartet kan du klikke på den grønne knappen med svart kryss for å zoome inn, på den grønne knappen med strek for å zoome ut, eller på de grønne pilene for å se tilstøtende kart.


METAR-TAF: